Time;durP1;ratioP1;P1;durP2;ratioP2;P2;SDS_P1;SDS_P2;PMS_P1;PMS_P2;Temp;Humidity;BMP_temperature;BMP_pressure;BME280_temperature;BME280_humidity;BME280_pressure;Samples;Min_cycle;Max_cycle;Signal;HPM_P1;HPM_P2
2021/10/09 00:00:42;;;;;;;;;;;;;;;19.32;57.81;100186.16;2083887;28;19978;-66
2021/10/09 00:01:42;;;;;;;;;;;;;;;19.32;57.75;100183.44;2083851;28;19912;-66
2021/10/09 00:02:42;;;;;;;;;;;;;;;19.32;57.74;100178.81;2082817;28;19919;-66
2021/10/09 00:03:43;;;;;;;;;;;;;;;19.33;57.74;100179.69;2079781;28;19930;-66
2021/10/09 00:04:43;;;;;;;;;;;;;;;19.32;57.72;100178.81;2083470;28;20301;-66
2021/10/09 00:05:43;;;;;;;;;;;;;;;19.32;57.89;100175.22;2080351;28;20213;-66
2021/10/09 00:06:43;;;;;;;;;;;;;;;19.32;57.79;100177.97;2082963;28;19920;-66
2021/10/09 00:07:44;;;;;;;;;;;;;;;19.32;57.72;100178.81;2080695;28;20493;-66
2021/10/09 00:08:44;;;;;;;;;;;;;;;19.31;57.75;100184.47;2080212;28;20353;-66
2021/10/09 00:09:45;;;;;;;;;;;;;;;19.32;57.72;100177.97;2082841;28;20317;-66
2021/10/09 00:10:46;;;;;;;;;;;;;;;19.32;57.77;100183.44;2082476;28;20188;-66
2021/10/09 00:11:46;;;;;;;;;;;;;;;19.32;57.71;100183.44;2083150;28;19922;-66
2021/10/09 00:12:47;;;;;;;;;;;;;;;19.33;57.85;100186.03;2083317;28;19982;-66
2021/10/09 00:13:47;;;;;;;;;;;;;;;19.32;57.81;100177.97;2079525;28;19920;-66
2021/10/09 00:14:47;;;;;;;;;;;;;;;19.32;57.82;100188.91;2082545;28;19943;-66
2021/10/09 00:15:48;;;;;;;;;;;;;;;19.32;57.74;100188.91;2080720;28;20322;-66
2021/10/09 00:16:48;;;;;;;;;;;;;;;19.32;57.79;100188.91;2083361;28;20594;-66
2021/10/09 00:17:49;;;;;;;;;;;;;;;19.31;57.88;100189.94;2081203;28;20437;-66
2021/10/09 00:18:49;;;;;;;;;;;;;;;19.31;57.84;100190.78;2078851;28;20070;-66
2021/10/09 00:19:49;;;;;;;;;;;;;;;19.31;57.84;100193.50;2080361;28;20208;-66
2021/10/09 00:20:50;;;;;;;;;;;;;;;19.32;57.94;100199.84;2080360;28;20243;-66
2021/10/09 00:21:50;;;;;;;;;;;;;;;19.32;57.90;100191.63;2083641;28;19917;-66
2021/10/09 00:22:50;;;;;;;;;;;;;;;19.32;57.85;100199.84;2081165;28;19916;-65
2021/10/09 00:23:50;;;;;;;;;;;;;;;19.32;57.86;100197.09;2079428;28;19924;-65
2021/10/09 00:24:51;;;;;;;;;;;;;;;19.32;57.86;100199.84;2083859;28;19915;-65
2021/10/09 00:25:52;;;;;;;;;;;;;;;19.31;57.91;100192.66;2082328;28;19963;-64
2021/10/09 00:26:53;;;;;;;;;;;;;;;19.31;57.91;100190.78;2077056;28;19908;-65
2021/10/09 00:27:53;;;;;;;;;;;;;;;19.31;57.90;100196.25;2082093;28;19916;-65
2021/10/09 00:28:53;;;;;;;;;;;;;;;19.32;57.90;100194.38;2082703;28;19920;-64
2021/10/09 00:29:54;;;;;;;;;;;;;;;19.30;57.76;100190.91;2082278;28;19955;-65
2021/10/09 00:30:54;;;;;;;;;;;;;;;19.31;57.94;100188.03;2078870;28;20498;-65
2021/10/09 00:31:54;;;;;;;;;;;;;;;19.32;57.84;100183.44;2079936;28;19916;-65
2021/10/09 00:32:55;;;;;;;;;;;;;;;19.31;57.80;100189.94;2078885;28;19916;-65
2021/10/09 00:33:55;;;;;;;;;;;;;;;19.30;57.87;100186.31;2080000;28;20007;-65
2021/10/09 00:34:55;;;;;;;;;;;;;;;19.31;57.85;100181.72;2074521;28;19908;-65
2021/10/09 00:35:55;;;;;;;;;;;;;;;19.31;57.84;100181.72;2074967;28;20301;-65
2021/10/09 00:36:56;;;;;;;;;;;;;;;19.30;57.84;100182.72;2082966;28;20861;-66
2021/10/09 00:37:56;;;;;;;;;;;;;;;19.30;57.85;100179.97;2081940;28;20013;-65
2021/10/09 00:38:56;;;;;;;;;;;;;;;19.30;57.90;100179.97;2084123;28;19916;-64
2021/10/09 00:39:57;;;;;;;;;;;;;;;19.30;57.93;100182.72;2082538;28;19912;-64
2021/10/09 00:40:57;;;;;;;;;;;;;;;19.30;57.90;100169.91;2085606;28;19912;-65
2021/10/09 00:41:57;;;;;;;;;;;;;;;19.27;57.90;100182.00;2082770;28;19908;-65
2021/10/09 00:42:58;;;;;;;;;;;;;;;19.30;57.93;100179.97;2081472;28;20311;-65
2021/10/09 00:44:11;;;;;;;;;;;;;;;19.30;58.02;100179.97;2073031;28;19920;-65
2021/10/09 00:45:11;;;;;;;;;;;;;;;19.30;57.98;100174.50;2076024;28;20034;-65
2021/10/09 00:46:12;;;;;;;;;;;;;;;19.28;57.98;100181.00;2083454;28;19961;-65
2021/10/09 00:47:13;;;;;;;;;;;;;;;19.30;58.01;100171.78;2082913;28;20454;-65
2021/10/09 00:48:13;;;;;;;;;;;;;;;19.27;57.87;100182.00;2080082;28;20712;-65
2021/10/09 00:49:16;;;;;;;;;;;;;;;19.27;57.94;100182.00;2088184;28;19920;-65
2021/10/09 00:50:17;;;;;;;;;;;;;;;19.28;58.01;100178.28;2079374;28;19912;-65
2021/10/09 00:51:17;;;;;;;;;;;;;;;19.27;58.07;100176.53;2078462;28;20030;-64
2021/10/09 00:52:18;;;;;;;;;;;;;;;19.28;58.02;100164.63;2078329;28;19917;-65
2021/10/09 00:53:19;;;;;;;;;;;;;;;19.27;58.01;100171.06;2077929;28;19909;-65
2021/10/09 00:54:20;;;;;;;;;;;;;;;19.28;57.98;100171.97;2082582;28;20611;-65
2021/10/09 00:55:21;;;;;;;;;;;;;;;19.28;58.09;100177.41;2068314;28;20335;-65
2021/10/09 00:56:21;;;;;;;;;;;;;;;19.27;57.97;100176.53;2071127;28;19912;-65
2021/10/09 00:57:22;;;;;;;;;;;;;;;19.27;57.96;100175.69;2081914;28;19926;-65
2021/10/09 00:58:23;;;;;;;;;;;;;;;19.27;58.03;100179.25;2083143;28;19920;-65
2021/10/09 00:59:27;;;;;;;;;;;;;;;19.26;58.07;100174.81;2083353;28;20009;-65
2021/10/09 01:00:27;;;;;;;;;;;;;;;19.28;57.93;100171.97;2082990;28;19916;-65
2021/10/09 01:01:28;;;;;;;;;;;;;;;19.27;58.03;100171.06;2083656;28;20824;-65
2021/10/09 01:02:28;;;;;;;;;;;;;;;19.28;57.98;100170.06;2082692;28;20003;-65
2021/10/09 01:03:29;;;;;;;;;;;;;;;19.30;58.08;100174.50;2081382;28;19920;-65
2021/10/09 01:04:31;;;;;;;;;;;;;;;19.27;58.03;100171.06;2084209;28;20007;-65
2021/10/09 01:05:32;;;;;;;;;;;;;;;19.28;58.00;100172.81;2081739;28;19916;-65
2021/10/09 01:06:32;;;;;;;;;;;;;;;19.27;58.11;100168.34;2082687;28;19917;-65
2021/10/09 01:07:33;;;;;;;;;;;;;;;19.27;57.97;100168.34;2085487;28;19916;-65
2021/10/09 01:08:33;;;;;;;;;;;;;;;19.28;57.96;100180.16;2080554;28;19924;-65
2021/10/09 01:09:33;;;;;;;;;;;;;;;19.30;57.96;100179.97;2079158;28;19928;-65
2021/10/09 01:10:34;;;;;;;;;;;;;;;19.28;57.95;100169.22;2071919;28;20010;-65
2021/10/09 01:11:34;;;;;;;;;;;;;;;19.27;58.04;100182.00;2073986;28;19917;-65
2021/10/09 01:12:35;;;;;;;;;;;;;;;19.27;58.06;100176.53;2086947;28;19920;-65
2021/10/09 01:13:35;;;;;;;;;;;;;;;19.28;58.03;100169.22;2084235;28;19987;-65
2021/10/09 01:14:35;;;;;;;;;;;;;;;19.27;58.00;100171.06;2081762;28;19919;-65
2021/10/09 01:15:35;;;;;;;;;;;;;;;19.27;58.00;100165.59;2081513;28;19917;-65
2021/10/09 01:16:36;;;;;;;;;;;;;;;19.27;58.13;100171.06;2076731;28;19994;-65
2021/10/09 01:17:36;;;;;;;;;;;;;;;19.27;57.90;100165.59;2085426;28;19921;-66
2021/10/09 01:18:36;;;;;;;;;;;;;;;19.27;58.04;100176.53;2083058;28;19924;-66
2021/10/09 01:19:37;;;;;;;;;;;;;;;19.26;58.06;100169.34;2084554;28;19917;-66
2021/10/09 01:20:43;;;;;;;;;;;;;;;19.27;58.10;100176.53;2093340;28;19916;-66
2021/10/09 01:21:47;;;;;;;;;;;;;;;19.26;58.09;100168.50;2086209;28;20002;-66
2021/10/09 01:22:48;;;;;;;;;;;;;;;19.26;58.06;100169.34;2068119;28;20347;-66
2021/10/09 01:23:49;;;;;;;;;;;;;;;19.27;58.13;100181.16;2074782;28;20142;-66
2021/10/09 01:24:49;;;;;;;;;;;;;;;19.26;58.10;100177.56;2083965;28;20406;-66
2021/10/09 01:25:50;;;;;;;;;;;;;;;19.26;58.10;100174.81;2085495;28;20366;-66
2021/10/09 01:26:50;;;;;;;;;;;;;;;19.26;58.20;100166.63;2083167;28;19916;-66
2021/10/09 01:27:50;;;;;;;;;;;;;;;19.26;58.15;100161.16;2084035;28;20389;-66
2021/10/09 01:28:51;;;;;;;;;;;;;;;19.26;58.11;100168.50;2087336;28;19920;-66
2021/10/09 01:29:52;;;;;;;;;;;;;;;19.26;58.08;100180.28;2083947;28;19951;-66
2021/10/09 01:30:55;;;;;;;;;;;;;;;19.26;58.18;100174.81;2080156;28;19920;-66
2021/10/09 01:31:56;;;;;;;;;;;;;;;19.25;58.16;100162.16;2088469;28;20378;-66
2021/10/09 01:32:56;;;;;;;;;;;;;;;19.25;58.24;100162.16;2081882;28;19917;-66
2021/10/09 01:33:56;;;;;;;;;;;;;;;19.25;58.09;100164.88;2084604;28;19924;-66
2021/10/09 01:34:57;;;;;;;;;;;;;;;19.25;58.19;100159.41;2080127;28;19920;-66
2021/10/09 01:35:57;;;;;;;;;;;;;;;19.24;58.13;100160.44;2082688;28;20495;-64
2021/10/09 01:36:57;;;;;;;;;;;;;;;19.25;58.15;100161.28;2084759;28;19920;-66
2021/10/09 01:37:58;;;;;;;;;;;;;;;19.24;58.20;100154.97;2082328;28;20897;-66
2021/10/09 01:38:59;;;;;;;;;;;;;;;19.24;58.08;100160.44;2083259;28;19917;-65
2021/10/09 01:40:02;;;;;;;;;;;;;;;19.24;58.23;100160.44;2084019;28;19916;-66
2021/10/09 01:41:03;;;;;;;;;;;;;;;19.24;58.23;100157.72;2086576;28;20034;-66
2021/10/09 01:42:03;;;;;;;;;;;;;;;19.24;58.28;100160.44;2084110;28;20041;-66
2021/10/09 01:43:07;;;;;;;;;;;;;;;19.24;58.19;100159.59;2081893;28;20002;-66
2021/10/09 01:44:08;;;;;;;;;;;;;;;19.24;58.29;100160.44;2080634;28;20407;-66
2021/10/09 01:45:09;;;;;;;;;;;;;;;19.25;58.25;100162.16;2083887;28;20409;-66
2021/10/09 01:46:09;;;;;;;;;;;;;;;19.24;58.22;100160.44;2071411;28;19940;-64
2021/10/09 01:47:10;;;;;;;;;;;;;;;19.24;58.26;100163.19;2072294;28;19948;-65
2021/10/09 01:48:10;;;;;;;;;;;;;;;19.25;58.24;100155.84;2083322;28;20087;-65
2021/10/09 01:49:11;;;;;;;;;;;;;;;19.24;58.25;100157.72;2079841;28;20484;-65
2021/10/09 01:50:11;;;;;;;;;;;;;;;19.25;58.24;100156.69;2074757;28;19920;-65
2021/10/09 01:51:12;;;;;;;;;;;;;;;19.24;58.22;100157.72;2074253;28;19920;-65
2021/10/09 01:52:13;;;;;;;;;;;;;;;19.25;58.21;100162.16;2082309;28;19935;-64
2021/10/09 01:53:13;;;;;;;;;;;;;;;19.25;58.21;100156.69;2084811;28;20411;-65
2021/10/09 01:54:13;;;;;;;;;;;;;;;19.25;58.24;100162.16;2082748;28;19918;-65
2021/10/09 01:55:14;;;;;;;;;;;;;;;19.25;58.19;100159.41;2083356;28;20008;-65
2021/10/09 01:56:14;;;;;;;;;;;;;;;19.25;58.21;100156.69;2070548;28;20216;-65
2021/10/09 01:57:14;;;;;;;;;;;;;;;19.25;58.19;100159.41;2061970;28;19921;-64
2021/10/09 01:58:15;;;;;;;;;;;;;;;19.26;58.14;100160.31;2072191;28;20004;-65
2021/10/09 01:59:15;;;;;;;;;;;;;;;19.25;58.20;100155.84;2081064;28;19921;-65
2021/10/09 02:00:16;;;;;;;;;;;;;;;19.24;58.26;100154.97;2083843;28;20653;-65
2021/10/09 02:01:16;;;;;;;;;;;;;;;19.25;58.23;100156.69;2082674;28;19916;-65
2021/10/09 02:02:16;;;;;;;;;;;;;;;19.26;58.32;100152.09;2070383;28;20365;-65
2021/10/09 02:03:19;;;;;;;;;;;;;;;19.25;58.51;100156.69;2070199;28;19932;-66
2021/10/09 02:04:24;;;;;;;;;;;;;;;19.25;58.28;100155.84;2082314;28;19924;-65
2021/10/09 02:05:24;;;;;;;;;;;;;;;19.24;58.31;100154.97;2082928;28;19965;-66
2021/10/09 02:06:24;;;;;;;;;;;;;;;19.25;58.19;100147.63;2084442;28;19965;-65
2021/10/09 02:07:25;;;;;;;;;;;;;;;19.25;58.19;100162.16;2081705;28;19947;-65
2021/10/09 02:08:25;;;;;;;;;;;;;;;19.24;58.31;100149.50;2076737;28;19916;-64
2021/10/09 02:09:26;;;;;;;;;;;;;;;19.25;58.16;100153.94;2079454;28;20323;-64
2021/10/09 02:10:26;;;;;;;;;;;;;;;19.25;58.17;100151.22;2078954;28;19920;-65
2021/10/09 02:11:36;;;;;;;;;;;;;;;19.24;58.09;100149.50;2068800;28;20307;-65
2021/10/09 02:13:03;;;;;;;;;;;;;;;19.24;58.16;100154.97;2070649;28;20000;-64
2021/10/09 02:15:59;;;;;;;;;;;;;;;19.24;58.18;100149.50;2078578;28;19913;-65
2021/10/09 02:25:47;;;;;;;;;;;;;;;19.24;58.34;100145.94;2081927;28;20918;-65
2021/10/09 02:26:47;;;;;;;;;;;;;;;19.23;58.34;100150.53;2076831;28;19913;-66
2021/10/09 02:27:48;;;;;;;;;;;;;;;19.23;58.38;100144.19;2083355;28;19961;-65
2021/10/09 02:28:48;;;;;;;;;;;;;;;19.23;58.41;100142.34;2081966;28;19939;-65
2021/10/09 02:29:48;;;;;;;;;;;;;;;19.23;58.42;100142.34;2076801;28;20514;-65
2021/10/09 02:30:50;;;;;;;;;;;;;;;19.22;58.30;100146.06;2078793;28;19921;-65
2021/10/09 02:31:51;;;;;;;;;;;;;;;19.23;58.29;100142.34;2090376;28;19916;-65
2021/10/09 02:32:51;;;;;;;;;;;;;;;19.22;58.39;100139.75;2084424;28;19965;-65
2021/10/09 02:33:51;;;;;;;;;;;;;;;19.23;58.30;100142.34;2083531;28;19916;-65
2021/10/09 02:34:52;;;;;;;;;;;;;;;19.23;58.28;100141.44;2074331;28;19940;-65
2021/10/09 02:35:52;;;;;;;;;;;;;;;19.23;58.31;100139.59;2079210;28;19913;-65
2021/10/09 02:36:52;;;;;;;;;;;;;;;19.23;58.43;100141.44;2085372;28;20529;-65
2021/10/09 02:37:53;;;;;;;;;;;;;;;19.23;58.33;100144.19;2080827;28;19970;-65
2021/10/09 02:38:53;;;;;;;;;;;;;;;19.23;58.39;100147.81;2077185;28;20151;-64
2021/10/09 02:39:53;;;;;;;;;;;;;;;19.21;58.42;100138.88;2082537;28;19928;-65
2021/10/09 02:40:54;;;;;;;;;;;;;;;19.21;58.30;100138.88;2088935;28;20293;-65
2021/10/09 02:41:55;;;;;;;;;;;;;;;19.23;58.34;100144.19;2079559;28;20569;-65
2021/10/09 02:42:55;;;;;;;;;;;;;;;19.22;58.31;100146.06;2084728;28;20504;-65
2021/10/09 02:43:58;;;;;;;;;;;;;;;19.23;58.33;100145.06;2082564;28;20493;-60
2021/10/09 02:44:59;;;;;;;;;;;;;;;19.22;58.35;100151.53;2072873;28;19916;-60
2021/10/09 02:45:59;;;;;;;;;;;;;;;19.23;58.38;100147.81;2072776;28;20031;-60
2021/10/09 02:47:00;;;;;;;;;;;;;;;19.23;58.40;100146.91;2083867;28;20073;-60
2021/10/09 02:48:01;;;;;;;;;;;;;;;19.23;58.47;100141.44;2074874;28;19911;-61
2021/10/09 02:49:01;;;;;;;;;;;;;;;19.21;58.37;100149.81;2073582;28;19962;-60
2021/10/09 02:50:03;;;;;;;;;;;;;;;19.21;58.42;100144.34;2087336;28;19928;-59
2021/10/09 02:51:04;;;;;;;;;;;;;;;19.22;58.45;100145.22;2081629;28;19912;-60
2021/10/09 02:52:04;;;;;;;;;;;;;;;19.21;58.51;100147.09;2086438;28;19950;-61
2021/10/09 02:53:07;;;;;;;;;;;;;;;19.22;58.47;100151.53;2081195;28;19931;-61
2021/10/09 02:54:08;;;;;;;;;;;;;;;19.22;58.50;100145.22;2083611;28;19970;-61
2021/10/09 02:55:08;;;;;;;;;;;;;;;19.22;58.47;100140.59;2083414;28;20010;-61
2021/10/09 02:56:09;;;;;;;;;;;;;;;19.22;58.41;100139.75;2082572;28;19924;-61
2021/10/09 02:57:12;;;;;;;;;;;;;;;19.22;58.48;100145.22;2087796;28;19916;-60
2021/10/09 02:58:12;;;;;;;;;;;;;;;19.21;58.53;100138.88;2081417;28;19918;-60
2021/10/09 02:59:13;;;;;;;;;;;;;;;19.21;58.51;100138.88;2079935;28;19972;-60
2021/10/09 03:00:14;;;;;;;;;;;;;;;19.21;58.51;100138.03;2085692;28;20342;-60
2021/10/09 03:01:14;;;;;;;;;;;;;;;19.21;58.57;100143.50;2082685;28;19908;-61
2021/10/09 03:02:14;;;;;;;;;;;;;;;19.20;58.50;100137.16;2082252;28;19908;-60
2021/10/09 03:03:14;;;;;;;;;;;;;;;19.20;58.56;100139.88;2083072;28;19960;-62
2021/10/09 03:04:15;;;;;;;;;;;;;;;19.20;58.55;100145.34;2081592;28;19915;-60
2021/10/09 03:05:15;;;;;;;;;;;;;;;19.20;58.59;100145.34;2084191;28;20367;-60
2021/10/09 03:06:16;;;;;;;;;;;;;;;19.20;58.35;100145.34;2085885;28;20132;-60
2021/10/09 03:07:16;;;;;;;;;;;;;;;19.21;58.46;100143.50;2081619;28;19921;-60
2021/10/09 03:08:16;;;;;;;;;;;;;;;19.21;58.59;100147.09;2083589;28;19916;-60
2021/10/09 03:09:17;;;;;;;;;;;;;;;19.20;58.47;100148.06;2073763;28;19909;-60
2021/10/09 03:10:17;;;;;;;;;;;;;;;19.21;58.50;100147.09;2078251;28;20388;-60
2021/10/09 03:11:17;;;;;;;;;;;;;;;19.20;58.58;100147.22;2083005;28;19944;-60
2021/10/09 03:12:17;;;;;;;;;;;;;;;19.21;58.52;100148.97;2075030;28;19917;-60
2021/10/09 03:13:18;;;;;;;;;;;;;;;19.21;58.52;100143.50;2074883;28;19952;-60
2021/10/09 03:14:18;;;;;;;;;;;;;;;19.21;58.59;100140.75;2082147;28;20039;-60
2021/10/09 03:15:18;;;;;;;;;;;;;;;19.20;58.59;100142.63;2084050;28;19925;-60
2021/10/09 03:16:19;;;;;;;;;;;;;;;19.20;58.53;100150.81;2083460;28;19958;-60
2021/10/09 03:17:19;;;;;;;;;;;;;;;19.19;58.53;100140.06;2084179;28;19924;-61
2021/10/09 03:18:19;;;;;;;;;;;;;;;19.19;58.61;100146.38;2084788;28;19908;-60
2021/10/09 03:19:19;;;;;;;;;;;;;;;19.20;58.53;100145.34;2083733;28;19942;-60
2021/10/09 03:20:20;;;;;;;;;;;;;;;19.20;58.63;100141.75;2083370;28;20014;-61
2021/10/09 03:21:20;;;;;;;;;;;;;;;19.21;58.57;100143.50;2085045;28;20032;-60
2021/10/09 03:22:20;;;;;;;;;;;;;;;19.20;58.49;100141.75;2082871;28;19909;-60
2021/10/09 03:23:21;;;;;;;;;;;;;;;19.19;58.52;100138.16;2082967;28;19923;-60
2021/10/09 03:24:21;;;;;;;;;;;;;;;19.19;58.51;100140.91;2084915;28;19913;-60
2021/10/09 03:25:21;;;;;;;;;;;;;;;19.20;58.53;100139.88;2081477;28;19920;-60
2021/10/09 03:26:22;;;;;;;;;;;;;;;19.19;58.63;100140.91;2086047;28;19923;-60
2021/10/09 03:27:22;;;;;;;;;;;;;;;19.18;58.54;100144.66;2080246;28;20324;-60
2021/10/09 03:28:23;;;;;;;;;;;;;;;19.19;58.60;100145.50;2084420;28;19923;-60
2021/10/09 03:29:23;;;;;;;;;;;;;;;19.20;58.71;100147.22;2085914;28;19916;-60
2021/10/09 03:30:23;;;;;;;;;;;;;;;19.19;58.82;100143.63;2085859;28;19924;-60
2021/10/09 03:31:24;;;;;;;;;;;;;;;19.20;58.69;100148.06;2084532;28;20303;-60
2021/10/09 03:32:24;;;;;;;;;;;;;;;19.19;58.60;100140.91;2080746;28;19940;-60
2021/10/09 03:33:24;;;;;;;;;;;;;;;19.19;58.59;100140.91;2084789;28;19916;-60
2021/10/09 03:34:25;;;;;;;;;;;;;;;19.20;58.56;100141.75;2075397;28;20014;-60
2021/10/09 03:35:25;;;;;;;;;;;;;;;19.19;58.58;100135.44;2075571;28;19909;-60
2021/10/09 03:36:26;;;;;;;;;;;;;;;19.18;58.48;100141.94;2083033;28;19908;-60
2021/10/09 03:37:26;;;;;;;;;;;;;;;19.20;58.66;100139.03;2082377;28;19927;-60
2021/10/09 03:38:27;;;;;;;;;;;;;;;19.19;58.63;100140.91;2082230;28;19917;-60
2021/10/09 03:39:27;;;;;;;;;;;;;;;19.19;58.55;100146.38;2079020;28;20167;-60
2021/10/09 03:40:28;;;;;;;;;;;;;;;19.18;58.61;100139.19;2087902;28;19988;-60
2021/10/09 03:41:28;;;;;;;;;;;;;;;19.19;58.53;100140.91;2081239;28;19920;-60
2021/10/09 03:43:07;;;;;;;;;;;;;;;19.18;58.61;100144.66;2083300;28;20333;-60
2021/10/09 03:43:55;;;;;;;;;;;;;;;19.19;58.60;100146.38;2080685;28;20602;-60
2021/10/09 03:45:33;;;;;;;;;;;;;;;19.19;58.68;100137.31;2079844;28;19916;-60
2021/10/09 03:46:27;;;;;;;;;;;;;;;19.18;58.68;100144.66;2081149;28;20040;-60
2021/10/09 03:49:50;;;;;;;;;;;;;;;19.18;58.62;100144.66;2079334;28;19917;-61
2021/10/09 03:53:23;;;;;;;;;;;;;;;19.18;58.72;100152.84;2082821;28;19916;-60
2021/10/09 03:54:24;;;;;;;;;;;;;;;19.19;58.75;100145.50;2082634;28;19909;-60
2021/10/09 03:55:24;;;;;;;;;;;;;;;19.18;58.64;100150.13;2083417;28;19928;-60
2021/10/09 03:56:24;;;;;;;;;;;;;;;19.18;58.64;100147.41;2081689;28;19920;-61
2021/10/09 03:57:25;;;;;;;;;;;;;;;19.18;58.69;100152.84;2084015;28;20016;-60
2021/10/09 03:58:25;;;;;;;;;;;;;;;19.17;58.73;100145.66;2080407;28;19946;-61
2021/10/09 03:59:26;;;;;;;;;;;;;;;19.17;58.70;100153.84;2079065;28;19921;-61
2021/10/09 04:00:26;;;;;;;;;;;;;;;19.17;58.77;100145.66;2072275;28;19927;-61
2021/10/09 04:01:26;;;;;;;;;;;;;;;19.17;58.71;100142.91;2074003;28;20012;-61
2021/10/09 04:02:27;;;;;;;;;;;;;;;19.18;58.71;100149.25;2079522;28;19944;-61
2021/10/09 04:03:27;;;;;;;;;;;;;;;19.17;58.64;100147.53;2083606;28;20034;-61
2021/10/09 04:04:29;;;;;;;;;;;;;;;19.16;58.74;100157.59;2078722;28;19909;-61
2021/10/09 04:05:29;;;;;;;;;;;;;;;19.17;58.75;100147.53;2078222;28;19929;-60
2021/10/09 04:06:30;;;;;;;;;;;;;;;19.17;58.78;100148.38;2085668;28;19916;-61
2021/10/09 04:07:30;;;;;;;;;;;;;;;19.17;58.79;100153.00;2078500;28;20163;-61
2021/10/09 04:08:31;;;;;;;;;;;;;;;19.17;58.77;100153.84;2083075;28;19920;-61
2021/10/09 04:09:31;;;;;;;;;;;;;;;19.17;58.78;100148.38;2085731;28;19908;-61
2021/10/09 04:10:32;;;;;;;;;;;;;;;19.16;58.71;100152.13;2080330;28;20666;-61
2021/10/09 04:11:32;;;;;;;;;;;;;;;19.17;58.81;100147.53;2084118;28;19943;-60
2021/10/09 04:12:32;;;;;;;;;;;;;;;19.17;58.78;100150.25;2080058;28;20049;-61
2021/10/09 04:13:33;;;;;;;;;;;;;;;19.16;58.82;100157.59;2083121;28;19908;-60
2021/10/09 04:14:36;;;;;;;;;;;;;;;19.16;58.66;100152.13;2075462;28;19920;-61
2021/10/09 04:15:36;;;;;;;;;;;;;;;19.17;58.86;100147.53;2065454;28;20028;-61
2021/10/09 04:16:36;;;;;;;;;;;;;;;19.14;58.75;100148.69;2073160;28;19917;-61
2021/10/09 04:17:37;;;;;;;;;;;;;;;19.14;58.78;100156.88;2085923;28;20020;-61
2021/10/09 04:18:37;;;;;;;;;;;;;;;19.15;58.85;100149.53;2078866;28;20805;-61
2021/10/09 04:19:37;;;;;;;;;;;;;;;19.15;58.79;100157.75;2076763;28;20236;-61
2021/10/09 04:20:38;;;;;;;;;;;;;;;19.16;59.09;100152.13;2083550;28;19908;-61
2021/10/09 04:21:38;;;;;;;;;;;;;;;19.16;58.81;100156.75;2081658;28;20297;-61
2021/10/09 04:22:51;;;;;;;;;;;;;;;19.15;58.81;100155.88;2083360;28;19908;-61
2021/10/09 04:23:51;;;;;;;;;;;;;;;19.15;58.77;100155.88;2079001;28;19908;-61
2021/10/09 04:24:51;;;;;;;;;;;;;;;19.15;58.98;100144.94;2084510;28;20368;-61
2021/10/09 04:25:52;;;;;;;;;;;;;;;19.15;58.74;100147.66;2081289;28;19917;-61
2021/10/09 04:26:52;;;;;;;;;;;;;;;19.15;58.85;100158.59;2080973;28;19917;-61
2021/10/09 04:27:52;;;;;;;;;;;;;;;19.15;58.92;100150.41;2078551;28;20362;-60
2021/10/09 04:28:53;;;;;;;;;;;;;;;19.14;59.05;100154.16;2072140;28;19916;-60
2021/10/09 04:29:53;;;;;;;;;;;;;;;19.15;58.77;100150.41;2075521;28;19954;-61
2021/10/09 04:30:53;;;;;;;;;;;;;;;19.15;58.94;100150.41;2080951;28;20406;-61
2021/10/09 04:31:54;;;;;;;;;;;;;;;19.14;58.89;100148.69;2086792;28;19908;-60
2021/10/09 04:32:54;;;;;;;;;;;;;;;19.14;58.94;100148.69;2082943;28;20146;-61
2021/10/09 04:33:54;;;;;;;;;;;;;;;19.15;58.88;100146.81;2083207;28;19909;-61
2021/10/09 04:34:55;;;;;;;;;;;;;;;19.14;58.78;100143.22;2081641;28;19963;-61
2021/10/09 04:35:55;;;;;;;;;;;;;;;19.14;58.84;100154.16;2086054;28;20112;-59
2021/10/09 04:36:55;;;;;;;;;;;;;;;19.15;58.88;100146.81;2090746;28;19928;-58
2021/10/09 04:37:56;;;;;;;;;;;;;;;19.15;58.80;100150.41;2085462;28;19975;-58
2021/10/09 04:38:56;;;;;;;;;;;;;;;19.14;58.83;100145.97;2082888;28;20446;-58
2021/10/09 04:39:56;;;;;;;;;;;;;;;19.13;58.84;100144.22;2088022;28;20330;-59
2021/10/09 04:40:56;;;;;;;;;;;;;;;19.14;58.85;100148.69;2089235;28;19913;-58
2021/10/09 04:41:57;;;;;;;;;;;;;;;19.14;58.85;100137.75;2089276;28;19914;-58
2021/10/09 04:42:57;;;;;;;;;;;;;;;19.14;58.82;100147.84;2089229;28;19916;-59
2021/10/09 04:43:59;;;;;;;;;;;;;;;19.14;58.82;100148.69;2085145;28;19925;-58
2021/10/09 04:44:59;;;;;;;;;;;;;;;19.14;58.82;100151.44;2086910;28;20596;-58
2021/10/09 04:45:59;;;;;;;;;;;;;;;19.14;58.77;100154.16;2088650;28;20294;-58
2021/10/09 04:46:59;;;;;;;;;;;;;;;19.13;58.73;100157.88;2086528;28;20393;-58
2021/10/09 04:48:03;;;;;;;;;;;;;;;19.14;58.74;100148.69;2090176;28;19999;-58
2021/10/09 04:49:04;;;;;;;;;;;;;;;19.13;58.86;100152.41;2090988;28;20392;-58
2021/10/09 04:50:05;;;;;;;;;;;;;;;19.14;58.84;100147.84;2091547;28;19920;-58
2021/10/09 04:51:05;;;;;;;;;;;;;;;19.14;58.75;100148.69;2091226;28;19928;-58
2021/10/09 04:52:12;;;;;;;;;;;;;;;19.14;58.79;100153.31;2091292;28;19969;-58
2021/10/09 04:53:12;;;;;;;;;;;;;;;19.13;58.78;100157.88;2092117;28;19966;-58
2021/10/09 04:54:12;;;;;;;;;;;;;;;19.13;58.86;100157.88;2090637;28;19912;-58
2021/10/09 04:55:13;;;;;;;;;;;;;;;19.14;58.82;100156.03;2089777;28;19955;-58
2021/10/09 04:56:14;;;;;;;;;;;;;;;19.13;58.83;100157.88;2087242;28;19917;-58
2021/10/09 04:57:14;;;;;;;;;;;;;;;19.14;58.76;100159.63;2090556;28;20395;-58
2021/10/09 04:58:14;;;;;;;;;;;;;;;19.13;58.79;100159.75;2090872;28;19924;-59
2021/10/09 04:59:14;;;;;;;;;;;;;;;19.14;58.65;100161.50;2084551;28;19925;-58
2021/10/09 05:00:15;;;;;;;;;;;;;;;19.14;58.89;100159.63;2091404;28;20062;-59
2021/10/09 05:01:15;;;;;;;;;;;;;;;19.13;58.86;100157.88;2091018;28;19920;-58
2021/10/09 05:02:15;;;;;;;;;;;;;;;19.14;58.82;100156.88;2090557;28;20380;-58
2021/10/09 05:03:16;;;;;;;;;;;;;;;19.13;58.85;100163.34;2091592;28;20162;-59
2021/10/09 05:04:16;;;;;;;;;;;;;;;19.14;58.90;100158.75;2088985;28;19955;-58
2021/10/09 05:05:17;;;;;;;;;;;;;;;19.13;59.07;100157.03;2090829;28;20639;-58
2021/10/09 05:06:17;;;;;;;;;;;;;;;19.13;59.08;100157.88;2091287;28;19916;-59
2021/10/09 05:07:17;;;;;;;;;;;;;;;19.13;58.84;100157.88;2091343;28;19927;-58
2021/10/09 05:08:18;;;;;;;;;;;;;;;19.12;58.98;100156.16;2089247;28;20274;-57
2021/10/09 05:09:19;;;;;;;;;;;;;;;19.12;58.90;100150.72;2091511;28;20409;-58
2021/10/09 05:10:20;;;;;;;;;;;;;;;19.12;58.84;100161.63;2088684;28;19916;-58
2021/10/09 05:11:20;;;;;;;;;;;;;;;19.12;58.91;100156.16;2090794;28;20541;-58
2021/10/09 05:12:20;;;;;;;;;;;;;;;19.12;58.83;100161.63;2089382;28;19916;-59
2021/10/09 05:13:20;;;;;;;;;;;;;;;19.12;58.78;100158.91;2086886;28;19967;-58
2021/10/09 05:14:21;;;;;;;;;;;;;;;19.12;58.88;100161.63;2091531;28;20322;-59
2021/10/09 05:15:21;;;;;;;;;;;;;;;19.12;58.89;100166.25;2090157;28;19962;-58
2021/10/09 05:16:21;;;;;;;;;;;;;;;19.12;58.87;100156.16;2091010;28;19951;-58
2021/10/09 05:17:22;;;;;;;;;;;;;;;19.11;58.87;100159.94;2090882;28;19932;-58
2021/10/09 05:18:22;;;;;;;;;;;;;;;19.13;58.88;100162.50;2090220;28;20036;-58
2021/10/09 05:19:22;;;;;;;;;;;;;;;19.13;58.88;100151.56;2086936;28;19919;-58
2021/10/09 05:20:23;;;;;;;;;;;;;;;19.12;58.91;100156.16;2089706;28;19919;-58
2021/10/09 05:21:23;;;;;;;;;;;;;;;19.12;58.92;100160.78;2089267;28;19959;-58
2021/10/09 05:22:23;;;;;;;;;;;;;;;19.11;58.84;100159.94;2082444;28;19928;-58
2021/10/09 05:23:24;;;;;;;;;;;;;;;19.13;58.84;100157.88;2080109;28;19916;-59
2021/10/09 05:24:24;;;;;;;;;;;;;;;19.12;58.82;100156.16;2090325;28;20315;-58
2021/10/09 05:25:24;;;;;;;;;;;;;;;19.13;58.82;100157.03;2090653;28;19987;-58
2021/10/09 05:26:26;;;;;;;;;;;;;;;19.12;58.76;100158.91;2084098;28;19919;-59
2021/10/09 05:27:27;;;;;;;;;;;;;;;19.12;58.65;100158.91;2086932;28;19916;-59
2021/10/09 05:28:38;;;;;;;;;;;;;;;19.13;58.54;100163.34;2087777;28;20257;-58